createdAt,value
2018-11-27T00:00:10.481Z,1.609344
2018-11-27T00:00:22.883Z,1.609344
2018-11-27T00:00:35.296Z,1.609344
2018-11-27T00:00:47.674Z,0
2018-11-27T00:01:00.043Z,1.609344
2018-11-27T00:01:12.403Z,1.609344
2018-11-27T00:01:24.777Z,1.609344
2018-11-27T00:01:37.139Z,1.609344
2018-11-27T00:01:49.491Z,1.609344
2018-11-27T00:02:02.354Z,3.218688
2018-11-27T00:02:14.721Z,9.656064
2018-11-27T00:02:27.063Z,9.656064
2018-11-27T00:02:39.413Z,4.828032
2018-11-27T00:02:51.776Z,3.218688
2018-11-27T00:03:04.137Z,1.609344
2018-11-27T00:03:16.542Z,9.656064
2018-11-27T00:03:28.897Z,8.04672
2018-11-27T00:03:41.247Z,8.04672
2018-11-27T00:03:53.586Z,6.437376
2018-11-27T00:04:05.931Z,6.437376
2018-11-27T00:04:18.293Z,4.828032
2018-11-27T00:04:30.707Z,4.828032
2018-11-27T00:04:43.052Z,1.609344
2018-11-27T00:04:55.418Z,6.437376
2018-11-27T00:05:07.773Z,8.04672
2018-11-27T00:05:20.287Z,6.437376
2018-11-27T00:05:32.656Z,6.437376
2018-11-27T00:05:45.043Z,4.828032
2018-11-27T00:05:57.406Z,1.609344
2018-11-27T00:06:09.758Z,1.609344
2018-11-27T00:06:22.137Z,4.828032
2018-11-27T00:06:34.496Z,3.218688
2018-11-27T00:06:46.846Z,4.828032
2018-11-27T00:06:59.216Z,3.218688
2018-11-27T00:07:11.574Z,1.609344
2018-11-27T00:07:23.909Z,8.04672
2018-11-27T00:07:36.280Z,12.874752
2018-11-27T00:07:48.655Z,11.265408
2018-11-27T00:08:01.446Z,11.265408
2018-11-27T00:08:13.817Z,6.437376
2018-11-27T00:08:26.166Z,8.04672
2018-11-27T00:08:38.525Z,6.437376
2018-11-27T00:08:50.892Z,8.04672
2018-11-27T00:09:03.223Z,4.828032
2018-11-27T00:09:15.560Z,3.218688
2018-11-27T00:09:27.906Z,3.218688
2018-11-27T00:09:40.232Z,1.609344
2018-11-27T00:09:52.595Z,1.609344
2018-11-27T00:10:04.948Z,1.609344
2018-11-27T00:10:17.339Z,1.609344
2018-11-27T00:10:29.685Z,1.609344
2018-11-27T00:10:42.060Z,1.609344
2018-11-27T00:10:54.418Z,3.218688
2018-11-27T00:11:06.776Z,4.828032
2018-11-27T00:11:19.119Z,4.828032
2018-11-27T00:11:31.466Z,6.437376
2018-11-27T00:11:43.819Z,1.609344
2018-11-27T00:11:56.218Z,1.609344
2018-11-27T00:12:08.571Z,1.609344
2018-11-27T00:12:20.915Z,4.828032
2018-11-27T00:12:33.268Z,6.437376
2018-11-27T00:12:45.639Z,4.828032
2018-11-27T00:12:57.995Z,6.437376
2018-11-27T00:13:10.580Z,6.437376
2018-11-27T00:13:22.936Z,6.437376
2018-11-27T00:13:35.291Z,6.437376
2018-11-27T00:13:47.891Z,8.04672
2018-11-27T00:14:00.248Z,9.656064
2018-11-27T00:14:12.595Z,9.656064
2018-11-27T00:14:24.950Z,8.04672
2018-11-27T00:14:37.299Z,3.218688
2018-11-27T00:14:49.650Z,6.437376
2018-11-27T00:15:02.008Z,4.828032
2018-11-27T00:15:14.387Z,3.218688
2018-11-27T00:15:26.732Z,6.437376
2018-11-27T00:15:39.097Z,3.218688
2018-11-27T00:15:51.483Z,1.609344
2018-11-27T00:16:03.846Z,1.609344
2018-11-27T00:16:16.197Z,1.609344
2018-11-27T00:16:28.548Z,1.609344
2018-11-27T00:16:40.900Z,0
2018-11-27T00:16:53.255Z,3.218688
2018-11-27T00:17:05.617Z,1.609344
2018-11-27T00:17:17.987Z,0
2018-11-27T00:17:30.620Z,0
2018-11-27T00:17:42.963Z,0
2018-11-27T00:17:55.308Z,0
2018-11-27T00:18:08.847Z,1.609344
2018-11-27T00:18:21.204Z,1.609344
2018-11-27T00:18:33.563Z,1.609344
2018-11-27T00:18:45.932Z,0
2018-11-27T00:18:58.336Z,1.609344
2018-11-27T00:19:10.684Z,0
2018-11-27T00:19:23.031Z,0
2018-11-27T00:19:35.387Z,0
2018-11-27T00:19:47.731Z,0
2018-11-27T00:20:00.097Z,0
2018-11-27T00:20:12.451Z,0
2018-11-27T00:20:25.021Z,1.609344
2018-11-27T00:20:37.377Z,3.218688
2018-11-27T00:20:49.730Z,0
2018-11-27T00:21:02.073Z,0
2018-11-27T00:21:14.469Z,0
2018-11-27T00:21:26.826Z,0
2018-11-27T00:21:39.193Z,1.609344
2018-11-27T00:21:51.541Z,1.609344
2018-11-27T00:22:03.884Z,1.609344
2018-11-27T00:22:16.373Z,0
2018-11-27T00:22:28.726Z,1.609344
2018-11-27T00:22:41.086Z,0
2018-11-27T00:22:53.443Z,0
2018-11-27T00:23:05.815Z,3.218688
2018-11-27T00:23:18.175Z,4.828032
2018-11-27T00:23:30.547Z,3.218688
2018-11-27T00:23:42.892Z,4.828032
2018-11-27T00:23:55.249Z,0
2018-11-27T00:24:07.594Z,0
2018-11-27T00:24:19.958Z,0
2018-11-27T00:24:32.296Z,0
2018-11-27T00:24:44.662Z,0
2018-11-27T00:24:57.069Z,1.609344
2018-11-27T00:25:09.416Z,4.828032
2018-11-27T00:25:21.833Z,4.828032
2018-11-27T00:25:34.256Z,3.218688
2018-11-27T00:25:46.593Z,1.609344
2018-11-27T00:25:59.266Z,0
2018-11-27T00:26:12.043Z,3.218688
2018-11-27T00:26:24.538Z,1.609344
2018-11-27T00:26:36.899Z,3.218688
2018-11-27T00:26:49.252Z,3.218688
2018-11-27T00:27:01.609Z,1.609344
2018-11-27T00:27:13.956Z,0
2018-11-27T00:27:26.462Z,1.609344
2018-11-27T00:27:38.806Z,0
2018-11-27T00:27:51.181Z,1.609344
2018-11-27T00:28:03.538Z,1.609344
2018-11-27T00:28:15.884Z,0
2018-11-27T00:28:28.231Z,1.609344
2018-11-27T00:28:40.733Z,1.609344
2018-11-27T00:28:53.069Z,1.609344
2018-11-27T00:29:05.413Z,0
2018-11-27T00:29:17.788Z,1.609344
2018-11-27T00:29:30.143Z,6.437376
2018-11-27T00:29:42.480Z,3.218688
2018-11-27T00:29:54.827Z,3.218688
2018-11-27T00:30:07.159Z,3.218688
2018-11-27T00:30:19.515Z,3.218688
2018-11-27T00:30:31.896Z,6.437376
2018-11-27T00:30:44.607Z,6.437376
2018-11-27T00:30:56.950Z,6.437376
2018-11-27T00:31:09.335Z,1.609344
2018-11-27T00:31:21.691Z,3.218688
2018-11-27T00:31:34.069Z,1.609344
2018-11-27T00:31:46.406Z,1.609344
2018-11-27T00:31:58.754Z,1.609344
2018-11-27T00:32:11.121Z,0
2018-11-27T00:32:23.478Z,0
2018-11-27T00:32:35.830Z,1.609344
2018-11-27T00:32:48.305Z,0
2018-11-27T00:33:00.674Z,0
2018-11-27T00:33:13.030Z,0
2018-11-27T00:33:25.373Z,0
2018-11-27T00:33:37.738Z,0
2018-11-27T00:33:50.085Z,1.609344
2018-11-27T00:34:02.506Z,0
2018-11-27T00:34:14.855Z,1.609344
2018-11-27T00:34:27.208Z,1.609344
2018-11-27T00:34:39.577Z,1.609344
2018-11-27T00:34:51.931Z,6.437376
2018-11-27T00:35:04.266Z,3.218688
2018-11-27T00:35:16.654Z,3.218688
2018-11-27T00:35:29.013Z,3.218688
2018-11-27T00:35:41.356Z,1.609344
2018-11-27T00:35:53.697Z,1.609344
2018-11-27T00:36:06.053Z,1.609344
2018-11-27T00:36:18.401Z,1.609344
2018-11-27T00:36:30.737Z,1.609344
2018-11-27T00:36:43.080Z,1.609344
2018-11-27T00:36:55.436Z,0
2018-11-27T00:37:07.789Z,0
2018-11-27T00:37:20.146Z,0
2018-11-27T00:37:32.501Z,1.609344
2018-11-27T00:37:44.858Z,0
2018-11-27T00:37:57.244Z,1.609344
2018-11-27T00:38:09.607Z,1.609344
2018-11-27T00:38:21.952Z,1.609344
2018-11-27T00:38:34.312Z,0
2018-11-27T00:38:46.665Z,0
2018-11-27T00:38:59.019Z,0
2018-11-27T00:39:11.525Z,0
2018-11-27T00:39:23.872Z,1.609344
2018-11-27T00:39:36.210Z,1.609344
2018-11-27T00:39:48.551Z,3.218688
2018-11-27T00:40:00.902Z,6.437376
2018-11-27T00:40:13.258Z,1.609344
2018-11-27T00:40:25.605Z,4.828032
2018-11-27T00:40:37.974Z,4.828032
2018-11-27T00:40:50.615Z,3.218688
2018-11-27T00:41:03.137Z,1.609344
2018-11-27T00:41:15.602Z,3.218688
2018-11-27T00:41:28.959Z,3.218688
2018-11-27T00:41:41.310Z,3.218688
2018-11-27T00:41:53.700Z,1.609344
2018-11-27T00:42:06.046Z,1.609344
2018-11-27T00:42:18.396Z,3.218688
2018-11-27T00:42:30.752Z,0
2018-11-27T00:42:43.100Z,1.609344
2018-11-27T00:42:55.461Z,1.609344
2018-11-27T00:43:07.818Z,3.218688
2018-11-27T00:43:20.323Z,8.04672
2018-11-27T00:43:32.715Z,6.437376
2018-11-27T00:43:45.038Z,4.828032
2018-11-27T00:43:57.380Z,3.218688
2018-11-27T00:44:09.722Z,1.609344
2018-11-27T00:44:22.208Z,1.609344
2018-11-27T00:44:34.563Z,1.609344
2018-11-27T00:44:46.932Z,0
2018-11-27T00:44:59.276Z,0
2018-11-27T00:45:11.612Z,1.609344
2018-11-27T00:45:23.991Z,1.609344
2018-11-27T00:45:36.362Z,3.218688
2018-11-27T00:45:48.833Z,4.828032
2018-11-27T00:46:01.189Z,1.609344
2018-11-27T00:46:13.554Z,6.437376
2018-11-27T00:46:25.911Z,3.218688
2018-11-27T00:46:38.265Z,0
2018-11-27T00:46:50.668Z,3.218688
2018-11-27T00:47:03.011Z,3.218688
2018-11-27T00:47:15.354Z,3.218688
2018-11-27T00:47:27.719Z,3.218688
2018-11-27T00:47:40.124Z,1.609344
2018-11-27T00:47:52.520Z,1.609344
2018-11-27T00:48:04.885Z,0
2018-11-27T00:48:17.811Z,0
2018-11-27T00:48:30.167Z,1.609344
2018-11-27T00:48:42.507Z,3.218688
2018-11-27T00:48:54.859Z,3.218688
2018-11-27T00:49:07.296Z,3.218688
2018-11-27T00:49:19.669Z,3.218688
2018-11-27T00:49:32.028Z,6.437376
2018-11-27T00:49:44.374Z,9.656064
2018-11-27T00:49:57.031Z,11.265408
2018-11-27T00:50:09.555Z,8.04672
2018-11-27T00:50:21.906Z,8.04672
2018-11-27T00:50:34.259Z,6.437376
2018-11-27T00:50:46.594Z,3.218688
2018-11-27T00:50:58.941Z,1.609344
2018-11-27T00:51:11.298Z,1.609344
2018-11-27T00:51:23.640Z,1.609344
2018-11-27T00:51:35.987Z,1.609344
2018-11-27T00:51:48.344Z,1.609344
2018-11-27T00:52:00.796Z,6.437376
2018-11-27T00:52:13.152Z,6.437376
2018-11-27T00:52:25.510Z,8.04672
2018-11-27T00:52:37.857Z,6.437376
2018-11-27T00:52:50.228Z,3.218688
2018-11-27T00:53:02.595Z,3.218688
2018-11-27T00:53:14.973Z,3.218688
2018-11-27T00:53:27.377Z,4.828032
2018-11-27T00:53:39.730Z,6.437376
2018-11-27T00:53:52.077Z,6.437376
2018-11-27T00:54:04.416Z,3.218688
2018-11-27T00:54:16.795Z,3.218688
2018-11-27T00:54:30.166Z,1.609344
2018-11-27T00:54:42.516Z,3.218688
2018-11-27T00:54:59.903Z,1.609344
2018-11-27T00:55:12.259Z,3.218688
2018-11-27T00:55:24.799Z,3.218688
2018-11-27T00:55:37.197Z,1.609344
2018-11-27T00:55:49.547Z,0
2018-11-27T00:56:01.982Z,0
2018-11-27T00:56:14.391Z,1.609344
2018-11-27T00:56:26.747Z,3.218688
2018-11-27T00:56:39.124Z,1.609344
2018-11-27T00:56:51.487Z,6.437376
2018-11-27T00:57:03.825Z,3.218688
2018-11-27T00:57:16.182Z,1.609344
2018-11-27T00:57:28.542Z,3.218688
2018-11-27T00:57:40.894Z,1.609344
2018-11-27T00:57:53.281Z,0
2018-11-27T00:58:05.648Z,0
2018-11-27T00:58:17.990Z,3.218688
2018-11-27T00:58:30.344Z,3.218688
2018-11-27T00:58:42.734Z,1.609344
2018-11-27T00:58:55.085Z,3.218688
2018-11-27T00:59:07.421Z,1.609344
2018-11-27T00:59:19.771Z,3.218688
2018-11-27T00:59:32.142Z,1.609344
2018-11-27T00:59:44.494Z,3.218688
2018-11-27T00:59:56.847Z,6.437376
2018-11-27T01:00:10.088Z,3.218688
2018-11-27T01:00:22.513Z,8.04672
2018-11-27T01:00:34.883Z,6.437376
2018-11-27T01:00:47.276Z,8.04672
2018-11-27T01:00:59.631Z,4.828032
2018-11-27T01:01:12.012Z,3.218688
2018-11-27T01:01:24.387Z,3.218688
2018-11-27T01:01:36.771Z,3.218688
2018-11-27T01:01:49.130Z,0
2018-11-27T01:02:01.494Z,0
2018-11-27T01:02:13.847Z,3.218688
2018-11-27T01:02:26.200Z,3.218688
2018-11-27T01:02:38.567Z,6.437376
2018-11-27T01:02:50.984Z,1.609344
2018-11-27T01:03:03.338Z,1.609344
2018-11-27T01:03:15.688Z,1.609344
2018-11-27T01:03:28.045Z,1.609344
2018-11-27T01:03:40.415Z,1.609344
2018-11-27T01:03:52.797Z,1.609344
2018-11-27T01:04:05.133Z,1.609344
2018-11-27T01:04:17.507Z,0
2018-11-27T01:04:30.036Z,1.609344
2018-11-27T01:04:42.389Z,3.218688
2018-11-27T01:04:54.737Z,1.609344
2018-11-27T01:05:07.086Z,3.218688
2018-11-27T01:05:19.597Z,0
2018-11-27T01:05:31.946Z,1.609344
2018-11-27T01:05:44.339Z,3.218688
2018-11-27T01:05:56.683Z,1.609344
2018-11-27T01:06:09.041Z,1.609344
2018-11-27T01:06:21.395Z,3.218688
2018-11-27T01:06:33.751Z,1.609344
2018-11-27T01:06:46.101Z,1.609344
2018-11-27T01:06:58.466Z,0
2018-11-27T01:07:10.800Z,0
2018-11-27T01:07:23.142Z,1.609344
2018-11-27T01:07:35.495Z,1.609344
2018-11-27T01:07:47.850Z,1.609344
2018-11-27T01:08:00.246Z,0
2018-11-27T01:08:12.577Z,0
2018-11-27T01:08:24.924Z,0
2018-11-27T01:08:37.264Z,0
2018-11-27T01:08:49.620Z,0
2018-11-27T01:09:01.958Z,0
2018-11-27T01:09:14.312Z,1.609344
2018-11-27T01:09:26.661Z,1.609344
2018-11-27T01:09:39.026Z,1.609344
2018-11-27T01:09:51.374Z,0
2018-11-27T01:10:03.724Z,1.609344
2018-11-27T01:10:16.104Z,1.609344
2018-11-27T01:10:28.451Z,0
2018-11-27T01:10:40.836Z,0
2018-11-27T01:10:53.184Z,1.609344
2018-11-27T01:11:05.558Z,3.218688
2018-11-27T01:11:17.898Z,8.04672
2018-11-27T01:11:30.239Z,4.828032
2018-11-27T01:11:42.588Z,3.218688
2018-11-27T01:11:55.043Z,1.609344
2018-11-27T01:12:07.386Z,0
2018-11-27T01:12:19.730Z,0
2018-11-27T01:12:32.076Z,0
2018-11-27T01:12:44.414Z,0
2018-11-27T01:12:56.798Z,3.218688
2018-11-27T01:13:09.267Z,3.218688
2018-11-27T01:13:21.617Z,1.609344
2018-11-27T01:13:33.975Z,1.609344
2018-11-27T01:13:46.494Z,1.609344
2018-11-27T01:13:58.829Z,3.218688
2018-11-27T01:14:11.173Z,1.609344
2018-11-27T01:14:23.531Z,1.609344
2018-11-27T01:14:35.885Z,1.609344
2018-11-27T01:14:48.257Z,0
2018-11-27T01:15:00.624Z,0
2018-11-27T01:15:12.975Z,0
2018-11-27T01:15:25.358Z,0
2018-11-27T01:15:37.709Z,1.609344
2018-11-27T01:15:50.051Z,0
2018-11-27T01:16:02.404Z,0
2018-11-27T01:16:14.751Z,0
2018-11-27T01:16:27.130Z,0
2018-11-27T01:16:39.541Z,0
2018-11-27T01:16:51.884Z,0
2018-11-27T01:17:04.233Z,1.609344
2018-11-27T01:17:16.562Z,3.218688
2018-11-27T01:17:28.986Z,3.218688
2018-11-27T01:17:41.462Z,6.437376
2018-11-27T01:17:53.854Z,6.437376
2018-11-27T01:18:06.396Z,6.437376
2018-11-27T01:18:18.806Z,4.828032
2018-11-27T01:18:31.218Z,3.218688
2018-11-27T01:18:43.565Z,1.609344
2018-11-27T01:18:55.927Z,1.609344
2018-11-27T01:19:08.310Z,0
2018-11-27T01:19:20.737Z,0
2018-11-27T01:19:33.072Z,0
2018-11-27T01:19:45.421Z,0
2018-11-27T01:19:57.785Z,0
2018-11-27T01:20:10.131Z,0
2018-11-27T01:20:22.616Z,0
2018-11-27T01:20:34.968Z,0
2018-11-27T01:20:47.308Z,0
2018-11-27T01:20:59.652Z,0
2018-11-27T01:21:12.010Z,0
2018-11-27T01:21:24.413Z,0
2018-11-27T01:21:36.752Z,0
2018-11-27T01:21:49.096Z,0
2018-11-27T01:22:01.456Z,3.218688
2018-11-27T01:22:14.008Z,3.218688
2018-11-27T01:22:26.349Z,1.609344
2018-11-27T01:22:38.699Z,1.609344
2018-11-27T01:22:51.059Z,1.609344
2018-11-27T01:23:03.454Z,3.218688
2018-11-27T01:23:15.828Z,3.218688
2018-11-27T01:23:28.213Z,8.04672
2018-11-27T01:23:40.560Z,3.218688
2018-11-27T01:23:52.910Z,3.218688
2018-11-27T01:24:05.263Z,3.218688
2018-11-27T01:24:17.607Z,1.609344
2018-11-27T01:24:29.943Z,3.218688
2018-11-27T01:24:42.291Z,3.218688
2018-11-27T01:24:54.788Z,3.218688
2018-11-27T01:25:07.139Z,1.609344
2018-11-27T01:25:19.524Z,1.609344
2018-11-27T01:25:31.880Z,1.609344
2018-11-27T01:25:44.241Z,1.609344
2018-11-27T01:25:56.806Z,1.609344
2018-11-27T01:26:09.149Z,3.218688
2018-11-27T01:26:21.691Z,3.218688
2018-11-27T01:26:34.049Z,4.828032
2018-11-27T01:26:46.390Z,3.218688
2018-11-27T01:26:58.726Z,1.609344
2018-11-27T01:27:11.070Z,1.609344
2018-11-27T01:27:23.410Z,3.218688
2018-11-27T01:27:35.762Z,1.609344
2018-11-27T01:27:48.119Z,0
2018-11-27T01:28:00.474Z,1.609344
2018-11-27T01:28:12.826Z,1.609344
2018-11-27T01:28:25.173Z,1.609344
2018-11-27T01:28:37.510Z,1.609344
2018-11-27T01:28:49.862Z,0
2018-11-27T01:29:02.244Z,0
2018-11-27T01:29:14.589Z,0
2018-11-27T01:29:26.934Z,0
2018-11-27T01:29:39.335Z,0
2018-11-27T01:29:51.681Z,0
2018-11-27T01:30:04.021Z,0
2018-11-27T01:30:16.384Z,0
2018-11-27T01:30:28.743Z,0
2018-11-27T01:30:41.191Z,1.609344
2018-11-27T01:30:53.528Z,0
2018-11-27T01:31:05.872Z,1.609344
2018-11-27T01:31:18.234Z,1.609344
2018-11-27T01:31:30.584Z,0
2018-11-27T01:31:42.946Z,0
2018-11-27T01:31:55.302Z,0
2018-11-27T01:32:07.672Z,0
2018-11-27T01:32:20.039Z,0
2018-11-27T01:32:32.391Z,1.609344
2018-11-27T01:32:44.798Z,1.609344
2018-11-27T01:32:57.138Z,3.218688
2018-11-27T01:33:09.533Z,3.218688
2018-11-27T01:33:21.899Z,1.609344
2018-11-27T01:33:34.270Z,3.218688
2018-11-27T01:33:46.674Z,1.609344
2018-11-27T01:33:59.019Z,0
2018-11-27T01:34:11.510Z,0
2018-11-27T01:34:23.842Z,1.609344
2018-11-27T01:34:36.180Z,3.218688
2018-11-27T01:34:48.514Z,3.218688
2018-11-27T01:35:00.863Z,1.609344
2018-11-27T01:35:13.231Z,1.609344
2018-11-27T01:35:25.593Z,1.609344
2018-11-27T01:35:37.975Z,3.218688
2018-11-27T01:35:50.318Z,3.218688
2018-11-27T01:36:02.657Z,3.218688
2018-11-27T01:36:15.035Z,1.609344
2018-11-27T01:36:27.409Z,1.609344
2018-11-27T01:36:39.760Z,3.218688
2018-11-27T01:36:52.107Z,1.609344
2018-11-27T01:37:04.451Z,1.609344
2018-11-27T01:37:16.830Z,0
2018-11-27T01:37:29.178Z,0
2018-11-27T01:37:41.530Z,0
2018-11-27T01:37:53.913Z,0
2018-11-27T01:38:06.319Z,0
2018-11-27T01:38:18.674Z,1.609344
2018-11-27T01:38:31.039Z,1.609344
2018-11-27T01:38:43.393Z,1.609344
2018-11-27T01:38:55.757Z,1.609344
2018-11-27T01:39:08.111Z,1.609344
2018-11-27T01:39:20.455Z,1.609344
2018-11-27T01:39:32.799Z,1.609344
2018-11-27T01:39:45.155Z,0
2018-11-27T01:39:57.504Z,0
2018-11-27T01:40:09.860Z,0
2018-11-27T01:40:22.259Z,0
2018-11-27T01:40:34.622Z,0
2018-11-27T01:40:47.226Z,0
2018-11-27T01:40:59.603Z,0
2018-11-27T01:41:12.211Z,0
2018-11-27T01:41:24.574Z,0
2018-11-27T01:41:36.921Z,1.609344
2018-11-27T01:41:49.272Z,1.609344
2018-11-27T01:42:01.621Z,1.609344
2018-11-27T01:42:13.987Z,1.609344
2018-11-27T01:42:26.340Z,1.609344
2018-11-27T01:42:38.679Z,1.609344
2018-11-27T01:42:51.020Z,1.609344
2018-11-27T01:43:03.362Z,1.609344
2018-11-27T01:43:15.703Z,1.609344
2018-11-27T01:43:28.934Z,1.609344
2018-11-27T01:43:41.284Z,1.609344
2018-11-27T01:43:53.763Z,1.609344
2018-11-27T01:44:06.111Z,1.609344
2018-11-27T01:44:18.589Z,0
2018-11-27T01:44:30.940Z,1.609344
2018-11-27T01:44:43.295Z,0
2018-11-27T01:44:55.634Z,0
2018-11-27T01:45:08.030Z,0
2018-11-27T01:45:20.397Z,1.609344
2018-11-27T01:45:32.807Z,1.609344
2018-11-27T01:45:45.187Z,1.609344
2018-11-27T01:45:57.703Z,3.218688
2018-11-27T01:46:10.072Z,1.609344
2018-11-27T01:46:22.418Z,1.609344
2018-11-27T01:46:34.766Z,0
2018-11-27T01:46:47.123Z,3.218688
2018-11-27T01:46:59.480Z,3.218688
2018-11-27T01:47:11.828Z,4.828032
2018-11-27T01:47:24.177Z,3.218688
2018-11-27T01:47:36.521Z,3.218688
2018-11-27T01:47:48.904Z,3.218688
2018-11-27T01:48:01.270Z,1.609344
2018-11-27T01:48:13.626Z,0
2018-11-27T01:48:26.011Z,0
2018-11-27T01:48:38.410Z,0
2018-11-27T01:48:50.747Z,0
2018-11-27T01:49:03.107Z,0
2018-11-27T01:49:15.454Z,0
2018-11-27T01:49:27.809Z,0
2018-11-27T01:49:40.217Z,1.609344
2018-11-27T01:49:52.742Z,0
2018-11-27T01:50:05.365Z,3.218688
2018-11-27T01:50:17.773Z,1.609344
2018-11-27T01:50:30.141Z,0
2018-11-27T01:50:42.477Z,0
2018-11-27T01:50:54.830Z,0
2018-11-27T01:51:07.204Z,0
2018-11-27T01:51:19.563Z,0
2018-11-27T01:51:31.909Z,0
2018-11-27T01:51:44.255Z,0
2018-11-27T01:51:56.715Z,1.609344
2018-11-27T01:52:09.059Z,1.609344
2018-11-27T01:52:21.419Z,0
2018-11-27T01:52:33.776Z,1.609344
2018-11-27T01:52:46.143Z,1.609344
2018-11-27T01:52:58.557Z,0
2018-11-27T01:53:10.916Z,0
2018-11-27T01:53:23.275Z,0
2018-11-27T01:53:35.624Z,1.609344
2018-11-27T01:53:47.977Z,1.609344
2018-11-27T01:54:00.682Z,1.609344
2018-11-27T01:54:13.045Z,0
2018-11-27T01:54:25.371Z,0
2018-11-27T01:54:37.720Z,0
2018-11-27T01:54:50.093Z,0
2018-11-27T01:55:02.432Z,1.609344
2018-11-27T01:55:14.780Z,0
2018-11-27T01:55:27.289Z,1.609344
2018-11-27T01:55:39.647Z,1.609344
2018-11-27T01:55:52.013Z,0
2018-11-27T01:56:04.364Z,1.609344
2018-11-27T01:56:16.704Z,1.609344
2018-11-27T01:56:29.045Z,0
2018-11-27T01:56:41.408Z,1.609344
2018-11-27T01:56:53.773Z,1.609344
2018-11-27T01:57:06.149Z,3.218688
2018-11-27T01:57:18.488Z,1.609344
2018-11-27T01:57:30.831Z,1.609344
2018-11-27T01:57:43.215Z,1.609344
2018-11-27T01:57:55.590Z,1.609344
2018-11-27T01:58:07.935Z,0
2018-11-27T01:58:20.268Z,0
2018-11-27T01:58:32.627Z,0
2018-11-27T01:58:44.963Z,0
2018-11-27T01:58:57.337Z,0
2018-11-27T01:59:09.691Z,1.609344
2018-11-27T01:59:22.041Z,1.609344
2018-11-27T01:59:34.382Z,1.609344
2018-11-27T01:59:46.724Z,0
2018-11-27T01:59:59.059Z,1.609344
2018-11-27T02:00:11.646Z,0
2018-11-27T02:00:24.026Z,1.609344
2018-11-27T02:00:36.470Z,3.218688
2018-11-27T02:00:48.862Z,1.609344
2018-11-27T02:01:01.278Z,0
2018-11-27T02:01:13.641Z,0
2018-11-27T02:01:26.017Z,0
2018-11-27T02:01:38.402Z,0
2018-11-27T02:01:50.755Z,1.609344
2018-11-27T02:02:03.138Z,1.609344
2018-11-27T02:02:15.504Z,3.218688
2018-11-27T02:02:27.867Z,0
2018-11-27T02:02:40.225Z,1.609344
2018-11-27T02:02:52.601Z,1.609344
2018-11-27T02:03:04.954Z,3.218688
2018-11-27T02:03:17.303Z,4.828032
2018-11-27T02:03:29.651Z,3.218688
2018-11-27T02:03:42.044Z,1.609344
2018-11-27T02:03:54.397Z,1.609344
2018-11-27T02:04:06.748Z,0
2018-11-27T02:04:19.086Z,1.609344
2018-11-27T02:04:31.570Z,0
2018-11-27T02:04:43.911Z,1.609344
2018-11-27T02:04:56.275Z,1.609344
2018-11-27T02:05:08.643Z,1.609344
2018-11-27T02:05:21.196Z,3.218688
2018-11-27T02:05:33.565Z,0
2018-11-27T02:05:45.916Z,0
2018-11-27T02:05:58.389Z,0
2018-11-27T02:06:10.827Z,0
2018-11-27T02:06:23.173Z,1.609344
2018-11-27T02:06:35.517Z,1.609344
2018-11-27T02:06:47.887Z,0
2018-11-27T02:07:00.283Z,0
2018-11-27T02:07:12.610Z,0
2018-11-27T02:07:24.958Z,0
2018-11-27T02:07:37.321Z,1.609344
2018-11-27T02:07:49.656Z,0
2018-11-27T02:08:02.018Z,4.828032
2018-11-27T02:08:14.358Z,1.609344
2018-11-27T02:08:26.758Z,1.609344
2018-11-27T02:08:39.130Z,3.218688
2018-11-27T02:08:51.496Z,1.609344
2018-11-27T02:09:03.854Z,4.828032
2018-11-27T02:09:16.223Z,6.437376
2018-11-27T02:09:28.623Z,1.609344
2018-11-27T02:09:40.982Z,4.828032
2018-11-27T02:09:53.375Z,8.04672
2018-11-27T02:10:05.755Z,6.437376
2018-11-27T02:10:18.101Z,3.218688
2018-11-27T02:10:30.446Z,3.218688
2018-11-27T02:10:42.774Z,3.218688
2018-11-27T02:10:55.121Z,3.218688
2018-11-27T02:11:07.464Z,3.218688
2018-11-27T02:11:19.802Z,3.218688
2018-11-27T02:11:32.150Z,6.437376
2018-11-27T02:11:44.502Z,6.437376
2018-11-27T02:11:57.042Z,3.218688
2018-11-27T02:12:09.407Z,3.218688
2018-11-27T02:12:21.761Z,3.218688
2018-11-27T02:12:34.113Z,1.609344
2018-11-27T02:12:46.472Z,3.218688
2018-11-27T02:13:04.533Z,0
2018-11-27T02:13:16.883Z,1.609344
2018-11-27T02:13:29.278Z,0
2018-11-27T02:13:41.661Z,0
2018-11-27T02:13:54.108Z,0
2018-11-27T02:14:06.477Z,0
2018-11-27T02:14:18.845Z,0
2018-11-27T02:14:31.190Z,0
2018-11-27T02:14:43.557Z,0
2018-11-27T02:14:55.906Z,1.609344
2018-11-27T02:15:08.253Z,1.609344
2018-11-27T02:15:20.621Z,3.218688
2018-11-27T02:15:32.973Z,3.218688
2018-11-27T02:15:45.356Z,1.609344
2018-11-27T02:15:57.714Z,1.609344
2018-11-27T02:16:10.073Z,3.218688
2018-11-27T02:16:22.436Z,1.609344
2018-11-27T02:16:34.781Z,0
2018-11-27T02:16:47.122Z,3.218688
2018-11-27T02:16:59.526Z,4.828032
2018-11-27T02:17:11.870Z,1.609344
2018-11-27T02:17:24.220Z,1.609344
2018-11-27T02:17:37.722Z,3.218688
2018-11-27T02:17:50.081Z,1.609344
2018-11-27T02:18:02.439Z,1.609344
2018-11-27T02:18:14.807Z,3.218688
2018-11-27T02:18:27.159Z,1.609344
2018-11-27T02:18:39.514Z,4.828032
2018-11-27T02:18:51.887Z,3.218688
2018-11-27T02:19:04.227Z,1.609344
2018-11-27T02:19:16.573Z,0
2018-11-27T02:19:28.929Z,0
2018-11-27T02:19:41.289Z,0
2018-11-27T02:19:53.628Z,1.609344
2018-11-27T02:20:05.992Z,1.609344
2018-11-27T02:20:18.343Z,1.609344
2018-11-27T02:20:30.829Z,0
2018-11-27T02:20:43.185Z,0
2018-11-27T02:20:55.527Z,1.609344
2018-11-27T02:21:07.859Z,1.609344
2018-11-27T02:21:20.202Z,1.609344
2018-11-27T02:21:32.550Z,3.218688
2018-11-27T02:21:44.905Z,3.218688
2018-11-27T02:21:57.266Z,3.218688
2018-11-27T02:22:09.683Z,0
2018-11-27T02:22:22.037Z,1.609344
2018-11-27T02:22:34.470Z,3.218688
2018-11-27T02:22:46.833Z,3.218688
2018-11-27T02:22:59.216Z,6.437376
2018-11-27T02:23:11.564Z,9.656064
2018-11-27T02:23:23.915Z,6.437376
2018-11-27T02:23:36.370Z,3.218688
2018-11-27T02:23:48.727Z,1.609344
2018-11-27T02:24:01.084Z,0
2018-11-27T02:24:13.426Z,0
2018-11-27T02:24:25.871Z,0
2018-11-27T02:24:38.214Z,0
2018-11-27T02:24:50.554Z,0
2018-11-27T02:25:02.904Z,1.609344
2018-11-27T02:25:15.254Z,1.609344
2018-11-27T02:25:27.599Z,1.609344
2018-11-27T02:25:39.941Z,3.218688
2018-11-27T02:25:52.467Z,6.437376
2018-11-27T02:26:04.799Z,3.218688
2018-11-27T02:26:17.147Z,6.437376
2018-11-27T02:26:29.629Z,6.437376
2018-11-27T02:26:41.976Z,3.218688
2018-11-27T02:26:54.337Z,6.437376
2018-11-27T02:27:06.680Z,1.609344
2018-11-27T02:27:19.025Z,1.609344
2018-11-27T02:27:31.382Z,1.609344
2018-11-27T02:27:43.775Z,3.218688
2018-11-27T02:27:56.151Z,3.218688
2018-11-27T02:28:08.556Z,3.218688
2018-11-27T02:28:20.927Z,3.218688
2018-11-27T02:28:33.276Z,1.609344
2018-11-27T02:28:45.627Z,1.609344
2018-11-27T02:28:57.974Z,1.609344
2018-11-27T02:29:10.321Z,3.218688
2018-11-27T02:29:22.666Z,1.609344
2018-11-27T02:29:35.068Z,0
2018-11-27T02:29:47.546Z,1.609344
2018-11-27T02:29:59.931Z,0
2018-11-27T02:30:12.314Z,0
2018-11-27T02:30:24.758Z,3.218688
2018-11-27T02:30:37.287Z,1.609344
2018-11-27T02:30:49.652Z,1.609344
2018-11-27T02:31:02.030Z,3.218688
2018-11-27T02:31:14.420Z,1.609344
2018-11-27T02:31:26.814Z,1.609344
2018-11-27T02:31:39.180Z,1.609344
2018-11-27T02:31:51.564Z,3.218688
2018-11-27T02:32:04.089Z,3.218688
2018-11-27T02:32:16.460Z,6.437376
2018-11-27T02:32:28.828Z,4.828032
2018-11-27T02:32:41.196Z,1.609344
2018-11-27T02:32:53.722Z,0
2018-11-27T02:33:06.094Z,0
2018-11-27T02:33:18.462Z,0
2018-11-27T02:33:31.131Z,0
2018-11-27T02:33:43.498Z,0
2018-11-27T02:33:55.876Z,1.609344
2018-11-27T02:34:08.372Z,1.609344
2018-11-27T02:34:20.717Z,1.609344
2018-11-27T02:34:33.088Z,0
2018-11-27T02:34:45.451Z,0
2018-11-27T02:34:57.850Z,0